createdAt,value
2022-10-16T00:09:58.638Z,11.75
2022-10-16T00:12:29.610Z,12.57
2022-10-16T00:15:00.287Z,12.55
2022-10-16T00:17:31.551Z,11.85
2022-10-16T00:20:02.346Z,11.87
2022-10-16T00:22:33.505Z,12.50
2022-10-16T00:27:35.034Z,11.90
2022-10-16T00:30:06.914Z,11.50
2022-10-16T00:32:37.712Z,11.88
2022-10-16T00:35:08.928Z,12.20
2022-10-16T00:37:39.756Z,12.05
2022-10-16T00:40:10.817Z,12.17
2022-10-16T00:42:42.672Z,12.13
2022-10-16T00:45:14.153Z,12.68
2022-10-16T00:50:28.276Z,12.35
2022-10-16T00:53:00.413Z,12.13
2022-10-16T00:55:35.007Z,12.70
2022-10-16T00:58:07.280Z,13.80
2022-10-16T01:00:38.021Z,12.83
2022-10-16T01:03:34.371Z,13.83
2022-10-16T01:06:37.279Z,13.93
2022-10-16T01:09:27.894Z,13.60
2022-10-16T01:12:14.486Z,14.07
2022-10-16T01:15:08.767Z,12.73
2022-10-16T01:17:43.109Z,13.50
2022-10-16T01:20:27.879Z,13.90
2022-10-16T01:23:09.214Z,14.07
2022-10-16T01:28:36.646Z,13.88
2022-10-16T01:31:08.191Z,13.90
2022-10-16T01:33:49.851Z,13.98
2022-10-16T01:38:58.652Z,14.27
2022-10-16T01:41:37.764Z,14.02
2022-10-16T01:44:23.455Z,13.45
2022-10-16T01:46:56.074Z,15.15
2022-10-16T01:49:32.783Z,16.85
2022-10-16T01:52:07.423Z,15.32
2022-10-16T01:54:41.387Z,14.10
2022-10-16T01:57:16.797Z,14.20
2022-10-16T01:59:53.192Z,14.23
2022-10-16T02:02:27.019Z,14.07
2022-10-16T02:05:13.737Z,14.38
2022-10-16T02:07:47.586Z,15.57
2022-10-16T02:10:18.851Z,16.13
2022-10-16T02:13:00.412Z,14.82
2022-10-16T02:18:01.734Z,15.07
2022-10-16T02:20:40.981Z,14.60
2022-10-16T02:23:19.930Z,14.15
2022-10-16T02:25:54.134Z,15.55
2022-10-16T02:28:33.614Z,14.45
2022-10-16T02:31:08.924Z,15.35
2022-10-16T02:33:43.772Z,14.27
2022-10-16T02:36:15.001Z,14.65
2022-10-16T02:38:45.972Z,14.13
2022-10-16T02:41:18.388Z,14.65
2022-10-16T02:43:49.174Z,14.75
2022-10-16T02:46:21.679Z,14.43
2022-10-16T02:48:52.697Z,14.00
2022-10-16T02:51:23.498Z,13.85
2022-10-16T02:53:54.168Z,15.10
2022-10-16T02:56:25.336Z,14.57
2022-10-16T02:58:56.075Z,14.15
2022-10-16T03:01:29.198Z,14.60
2022-10-16T03:03:59.996Z,15.00
2022-10-16T03:06:30.806Z,14.30
2022-10-16T03:09:01.894Z,14.13
2022-10-16T03:11:32.783Z,14.00
2022-10-16T03:14:03.731Z,14.35
2022-10-16T03:16:34.519Z,14.25
2022-10-16T03:19:05.429Z,13.80
2022-10-16T03:21:36.303Z,22.58
2022-10-16T03:24:07.346Z,19.02
2022-10-16T03:26:38.017Z,16.48
2022-10-16T03:29:09.035Z,16.23
2022-10-16T03:31:39.884Z,14.73
2022-10-16T03:34:10.863Z,14.40
2022-10-16T03:36:42.020Z,15.20
2022-10-16T03:39:12.899Z,14.38
2022-10-16T03:41:43.995Z,13.70
2022-10-16T03:44:14.897Z,14.05
2022-10-16T03:46:46.041Z,13.20
2022-10-16T03:49:16.783Z,13.55
2022-10-16T03:51:47.539Z,13.30
2022-10-16T03:54:18.551Z,10.32
2022-10-16T03:56:49.685Z,9.40
2022-10-16T03:59:20.721Z,9.00
2022-10-16T04:01:51.471Z,8.45
2022-10-16T04:04:22.791Z,9.13
2022-10-16T04:09:23.789Z,9.88
2022-10-16T04:11:54.536Z,10.90
2022-10-16T04:14:25.110Z,9.83
2022-10-16T04:16:55.831Z,10.63
2022-10-16T04:19:26.603Z,9.83
2022-10-16T04:21:58.571Z,10.05
2022-10-16T04:24:29.464Z,9.73
2022-10-16T04:27:00.464Z,9.37
2022-10-16T04:29:31.932Z,10.07
2022-10-16T04:32:02.838Z,10.30
2022-10-16T04:34:33.689Z,10.20
2022-10-16T04:37:04.468Z,11.13
2022-10-16T04:39:35.444Z,12.35
2022-10-16T04:42:06.560Z,11.77
2022-10-16T04:44:37.256Z,14.13
2022-10-16T04:47:08.422Z,12.40
2022-10-16T04:49:39.176Z,12.80
2022-10-16T04:52:10.140Z,12.30
2022-10-16T04:54:40.955Z,16.52
2022-10-16T04:57:11.690Z,15.30
2022-10-16T04:59:42.731Z,13.57
2022-10-16T05:04:44.243Z,14.15
2022-10-16T05:07:15.053Z,14.70
2022-10-16T05:09:46.027Z,17.47
2022-10-16T05:12:16.832Z,16.83
2022-10-16T05:14:47.518Z,16.50
2022-10-16T05:17:18.545Z,16.98
2022-10-16T05:19:49.334Z,18.00
2022-10-16T05:22:19.976Z,17.40
2022-10-16T05:24:50.957Z,17.53
2022-10-16T05:27:24.873Z,17.15
2022-10-16T05:29:56.210Z,17.33
2022-10-16T05:32:27.020Z,17.08
2022-10-16T05:34:57.993Z,18.00
2022-10-16T05:37:28.964Z,17.65
2022-10-16T05:39:59.953Z,18.35
2022-10-16T05:42:30.782Z,20.65
2022-10-16T05:45:01.703Z,19.65
2022-10-16T05:47:32.524Z,19.03
2022-10-16T05:50:03.164Z,19.23
2022-10-16T05:52:35.541Z,19.30
2022-10-16T05:55:06.362Z,18.33
2022-10-16T05:57:37.292Z,18.95
2022-10-16T06:00:08.861Z,19.30
2022-10-16T06:02:45.711Z,19.30
2022-10-16T06:05:16.564Z,18.47
2022-10-16T06:07:47.251Z,18.92
2022-10-16T06:10:18.518Z,18.47
2022-10-16T06:15:19.577Z,18.65
2022-10-16T06:17:50.264Z,20.53
2022-10-16T06:20:20.951Z,18.97
2022-10-16T06:22:51.707Z,18.80
2022-10-16T06:25:22.703Z,18.48
2022-10-16T06:27:53.472Z,19.43
2022-10-16T06:30:24.382Z,20.10
2022-10-16T06:38:00.014Z,19.08
2022-10-16T06:40:30.862Z,18.90
2022-10-16T06:43:02.270Z,18.55
2022-10-16T06:45:33.106Z,17.73
2022-10-16T06:48:03.790Z,17.48
2022-10-16T06:50:34.495Z,18.35
2022-10-16T06:53:06.222Z,18.25
2022-10-16T06:55:37.160Z,17.95
2022-10-16T06:58:07.864Z,18.77
2022-10-16T07:00:38.658Z,17.55
2022-10-16T07:03:11.349Z,17.35
2022-10-16T07:05:46.253Z,21.33
2022-10-16T07:08:17.069Z,18.50
2022-10-16T07:10:47.856Z,17.47
2022-10-16T07:13:18.638Z,18.27
2022-10-16T07:15:49.452Z,18.55
2022-10-16T07:18:20.356Z,18.67
2022-10-16T07:20:51.069Z,18.10
2022-10-16T07:23:23.163Z,18.55
2022-10-16T07:26:02.647Z,18.27
2022-10-16T07:28:33.727Z,18.98
2022-10-16T07:31:10.509Z,23.60
2022-10-16T07:33:42.290Z,24.45
2022-10-16T07:36:16.344Z,24.48
2022-10-16T07:38:48.318Z,27.10
2022-10-16T07:41:22.660Z,23.02
2022-10-16T07:43:55.763Z,22.60
2022-10-16T07:46:27.229Z,25.05
2022-10-16T07:51:29.967Z,21.27
2022-10-16T07:54:00.890Z,19.48
2022-10-16T07:56:31.639Z,20.17
2022-10-16T07:59:02.733Z,18.05
2022-10-16T08:01:33.644Z,16.57
2022-10-16T08:06:42.235Z,17.40
2022-10-16T08:09:13.475Z,17.00
2022-10-16T08:11:44.198Z,15.90
2022-10-16T08:14:15.146Z,18.27
2022-10-16T08:16:46.063Z,17.75
2022-10-16T08:19:16.862Z,18.05
2022-10-16T08:21:50.674Z,17.73
2022-10-16T08:24:21.344Z,17.33
2022-10-16T08:26:52.129Z,17.27
2022-10-16T08:29:22.787Z,17.43
2022-10-16T08:31:53.608Z,18.37
2022-10-16T08:34:24.572Z,18.87
2022-10-16T08:36:58.383Z,18.23
2022-10-16T08:39:29.317Z,18.58
2022-10-16T08:42:08.278Z,18.55
2022-10-16T08:44:39.860Z,19.58
2022-10-16T08:50:06.342Z,19.42
2022-10-16T08:52:40.045Z,17.38
2022-10-16T08:55:21.232Z,18.85
2022-10-16T08:57:52.006Z,18.08
2022-10-16T09:00:23.354Z,20.03
2022-10-16T09:03:03.994Z,17.98
2022-10-16T09:06:01.968Z,19.13
2022-10-16T09:08:38.441Z,19.63
2022-10-16T09:11:18.266Z,19.27
2022-10-16T09:14:06.521Z,19.52
2022-10-16T09:17:04.600Z,20.65
2022-10-16T09:19:43.154Z,21.38
2022-10-16T09:22:22.143Z,19.73
2022-10-16T09:24:53.073Z,19.65
2022-10-16T09:27:25.020Z,20.35
2022-10-16T09:29:59.632Z,19.88
2022-10-16T09:32:32.978Z,18.20
2022-10-16T09:35:04.036Z,19.40
2022-10-16T09:37:35.549Z,19.65
2022-10-16T09:40:07.671Z,19.60
2022-10-16T09:42:41.128Z,19.63
2022-10-16T09:45:26.619Z,18.92
2022-10-16T09:47:57.917Z,20.10
2022-10-16T09:53:10.401Z,20.60
2022-10-16T09:55:51.294Z,21.88
2022-10-16T09:58:22.321Z,21.60
2022-10-16T10:00:56.005Z,21.05
2022-10-16T10:03:38.335Z,21.85
2022-10-16T10:06:44.675Z,20.60
2022-10-16T10:09:46.540Z,21.73
2022-10-16T10:15:11.616Z,21.10
2022-10-16T10:17:56.953Z,20.95
2022-10-16T10:20:42.385Z,22.92
2022-10-16T10:23:39.644Z,21.27
2022-10-16T10:26:22.549Z,21.30
2022-10-16T10:29:26.880Z,22.73
2022-10-16T10:32:29.040Z,21.73
2022-10-16T10:35:22.794Z,21.80
2022-10-16T10:38:02.235Z,20.60
2022-10-16T10:40:51.365Z,21.63
2022-10-16T10:43:52.761Z,20.58
2022-10-16T10:46:43.291Z,21.42
2022-10-16T10:49:30.906Z,19.80
2022-10-16T10:52:01.668Z,19.92
2022-10-16T10:54:50.118Z,19.63
2022-10-16T10:57:32.660Z,19.70
2022-10-16T11:00:40.535Z,18.90
2022-10-16T11:03:31.344Z,20.58
2022-10-16T11:06:01.983Z,20.90
2022-10-16T11:08:35.816Z,21.17
2022-10-16T11:11:13.190Z,20.17
2022-10-16T11:14:01.634Z,21.80
2022-10-16T11:16:53.898Z,21.15
2022-10-16T11:19:46.030Z,23.30
2022-10-16T11:22:34.549Z,22.40
2022-10-16T11:25:20.110Z,23.40
2022-10-16T11:28:07.654Z,23.40
2022-10-16T11:31:08.361Z,24.83
2022-10-16T11:33:57.220Z,23.10
2022-10-16T11:36:52.035Z,24.45
2022-10-16T11:39:32.288Z,25.60
2022-10-16T11:42:05.696Z,25.38
2022-10-16T11:44:54.331Z,27.20
2022-10-16T11:48:00.521Z,27.13
2022-10-16T11:50:46.446Z,24.80
2022-10-16T11:53:39.646Z,26.45
2022-10-16T11:56:10.480Z,26.88
2022-10-16T11:58:45.612Z,26.23
2022-10-16T12:01:42.332Z,26.02
2022-10-16T12:04:19.323Z,26.13
2022-10-16T12:06:55.934Z,26.27
2022-10-16T12:12:51.051Z,24.80
2022-10-16T12:18:36.799Z,26.50
2022-10-16T12:24:03.526Z,25.08
2022-10-16T12:29:46.123Z,25.02
2022-10-16T12:32:47.091Z,25.20
2022-10-16T12:35:34.430Z,25.05
2022-10-16T12:38:24.399Z,25.50
2022-10-16T12:41:11.938Z,25.40
2022-10-16T12:43:46.056Z,26.13
2022-10-16T12:46:16.883Z,25.40
2022-10-16T12:49:06.043Z,26.05
2022-10-16T12:51:37.176Z,26.55
2022-10-16T12:54:17.573Z,28.03
2022-10-16T12:57:25.924Z,27.10
2022-10-16T12:59:56.705Z,26.40
2022-10-16T13:03:07.738Z,26.83
2022-10-16T13:06:15.068Z,26.25
2022-10-16T14:19:10.810Z,23.42
2022-10-16T14:21:44.240Z,22.50
2022-10-16T14:24:28.663Z,21.70
2022-10-16T14:27:00.066Z,22.15
2022-10-16T14:29:35.137Z,21.77
2022-10-16T14:32:08.856Z,19.38
2022-10-16T14:34:43.862Z,20.67
2022-10-16T14:37:31.266Z,19.45
2022-10-16T14:40:02.625Z,20.95
2022-10-16T14:42:34.652Z,19.67
2022-10-16T14:45:05.341Z,20.08
2022-10-16T14:47:36.124Z,19.33
2022-10-16T14:50:07.199Z,20.40
2022-10-16T14:52:37.996Z,19.40
2022-10-16T14:57:54.630Z,20.27
2022-10-16T15:00:30.410Z,19.60
2022-10-16T15:03:04.716Z,19.15
2022-10-16T15:05:55.335Z,18.55
2022-10-16T15:08:32.911Z,19.65
2022-10-16T15:11:09.905Z,19.48
2022-10-16T15:16:32.455Z,19.48
2022-10-16T15:19:05.954Z,19.05
2022-10-16T15:21:43.058Z,18.33
2022-10-16T15:27:03.658Z,18.88
2022-10-16T15:32:17.725Z,17.63
2022-10-16T15:34:48.462Z,18.27
2022-10-16T15:37:19.316Z,16.70
2022-10-16T15:39:50.088Z,17.73
2022-10-16T15:42:20.885Z,16.47
2022-10-16T15:44:53.793Z,16.87
2022-10-16T15:47:24.633Z,16.98
2022-10-16T15:49:55.439Z,18.15
2022-10-16T15:52:26.554Z,16.53
2022-10-16T15:57:28.303Z,16.08
2022-10-16T15:59:59.174Z,17.08
2022-10-16T16:02:29.961Z,16.90
2022-10-16T16:05:00.832Z,17.55
2022-10-16T16:07:31.783Z,17.40
2022-10-16T16:10:02.595Z,16.33
2022-10-16T16:12:34.129Z,16.08
2022-10-16T16:15:05.858Z,15.87
2022-10-16T16:17:38.059Z,15.57
2022-10-16T16:20:09.693Z,16.52
2022-10-16T16:22:40.542Z,16.55
2022-10-16T16:25:11.673Z,15.82
2022-10-16T16:27:42.517Z,16.10
2022-10-16T16:30:18.680Z,15.97
2022-10-16T16:32:51.434Z,16.65
2022-10-16T16:35:22.342Z,15.75
2022-10-16T16:37:53.076Z,15.93
2022-10-16T16:40:23.994Z,17.17
2022-10-16T16:42:54.909Z,16.05
2022-10-16T16:45:25.606Z,16.00
2022-10-16T16:47:56.537Z,16.63
2022-10-16T16:50:27.187Z,15.80
2022-10-16T16:52:58.000Z,15.07
2022-10-16T16:55:28.731Z,15.70
2022-10-16T16:58:00.626Z,15.20
2022-10-16T17:00:31.442Z,16.75
2022-10-16T17:03:02.218Z,15.97
2022-10-16T17:05:32.899Z,16.20
2022-10-16T17:08:03.626Z,16.70
2022-10-16T17:10:34.337Z,16.83
2022-10-16T17:13:04.884Z,16.73
2022-10-16T17:15:35.702Z,16.53
2022-10-16T17:18:06.581Z,16.52
2022-10-16T17:20:39.863Z,16.83
2022-10-16T17:23:11.345Z,16.15
2022-10-16T17:25:43.449Z,15.82
2022-10-16T17:28:16.079Z,15.52
2022-10-16T17:30:47.754Z,15.98
2022-10-16T17:33:18.698Z,16.02
2022-10-16T17:35:50.737Z,15.20
2022-10-16T17:38:21.358Z,15.98
2022-10-16T17:40:52.079Z,15.57
2022-10-16T17:43:22.801Z,15.45
2022-10-16T17:45:53.574Z,15.03
2022-10-16T17:48:24.492Z,15.50
2022-10-16T17:50:55.291Z,15.43
2022-10-16T17:53:25.948Z,16.20
2022-10-16T17:56:02.035Z,14.90
2022-10-16T17:58:32.716Z,16.83
2022-10-16T18:01:03.457Z,15.87
2022-10-16T18:03:34.281Z,15.77
2022-10-16T18:06:05.137Z,15.15
2022-10-16T18:08:39.335Z,15.57
2022-10-16T18:11:10.193Z,15.35
2022-10-16T18:13:41.193Z,15.10
2022-10-16T18:16:15.748Z,16.00
2022-10-16T18:18:50.739Z,16.05
2022-10-16T18:21:23.203Z,16.65
2022-10-16T18:23:53.940Z,14.93
2022-10-16T18:26:26.176Z,15.50
2022-10-16T18:28:59.962Z,16.35
2022-10-16T18:31:30.984Z,15.75
2022-10-16T18:34:01.801Z,15.73
2022-10-16T18:36:35.867Z,15.82
2022-10-16T18:39:13.990Z,15.02
2022-10-16T18:41:50.194Z,15.30
2022-10-16T18:46:59.863Z,14.95
2022-10-16T18:49:32.398Z,15.38
2022-10-16T18:52:05.781Z,16.23
2022-10-16T18:54:37.657Z,15.80
2022-10-16T18:57:08.477Z,15.68
2022-10-16T18:59:39.243Z,16.13
2022-10-16T19:02:10.382Z,16.33
2022-10-16T19:04:41.342Z,16.70
2022-10-16T19:07:12.702Z,16.30
2022-10-16T19:09:43.420Z,15.57
2022-10-16T19:12:14.205Z,15.88
2022-10-16T19:14:45.072Z,16.37
2022-10-16T19:17:15.873Z,17.40
2022-10-16T19:19:46.609Z,16.30
2022-10-16T19:22:30.545Z,15.35
2022-10-16T19:25:01.498Z,16.10
2022-10-16T19:27:32.455Z,16.77
2022-10-16T19:30:03.242Z,16.23
2022-10-16T19:32:35.867Z,15.88
2022-10-16T19:35:07.018Z,16.73
2022-10-16T19:37:39.034Z,16.20
2022-10-16T19:40:10.503Z,17.52
2022-10-16T19:45:17.238Z,16.45
2022-10-16T19:47:48.575Z,17.70
2022-10-16T19:50:21.813Z,16.63
2022-10-16T19:52:52.583Z,16.23
2022-10-16T19:55:24.283Z,15.93
2022-10-16T19:57:55.277Z,16.23
2022-10-16T20:00:26.144Z,15.90
2022-10-16T20:02:56.981Z,16.60
2022-10-16T20:05:27.941Z,17.40
2022-10-16T20:07:58.841Z,15.90
2022-10-16T20:10:29.885Z,16.00
2022-10-16T20:13:00.672Z,16.00
2022-10-16T20:15:31.660Z,16.98
2022-10-16T20:18:02.474Z,16.63
2022-10-16T20:20:33.002Z,15.43
2022-10-16T20:23:04.475Z,15.00
2022-10-16T20:25:39.279Z,16.42
2022-10-16T20:28:11.579Z,16.23
2022-10-16T20:30:45.347Z,14.57
2022-10-16T20:33:16.472Z,14.98
2022-10-16T20:35:49.955Z,16.45
2022-10-16T20:38:21.890Z,16.25
2022-10-16T20:40:52.663Z,15.68
2022-10-16T20:43:23.400Z,16.43
2022-10-16T20:46:03.556Z,15.80
2022-10-16T20:48:35.087Z,15.48
2022-10-16T20:53:48.185Z,15.65
2022-10-16T20:56:20.134Z,15.05
2022-10-16T20:58:50.936Z,14.80
2022-10-16T21:01:25.337Z,15.32
2022-10-16T21:04:02.313Z,15.52
2022-10-16T21:06:35.388Z,15.23
2022-10-16T21:09:06.829Z,15.52
2022-10-16T21:14:11.058Z,16.13
2022-10-16T21:16:41.831Z,15.55
2022-10-16T21:19:12.656Z,16.40
2022-10-16T21:21:43.385Z,15.48
2022-10-16T21:24:16.624Z,17.00
2022-10-16T21:26:48.496Z,16.75
2022-10-16T21:29:19.526Z,15.45
2022-10-16T21:31:50.337Z,15.73
2022-10-16T21:34:21.090Z,15.10
2022-10-16T21:36:52.032Z,15.30
2022-10-16T21:39:23.749Z,15.43
2022-10-16T21:41:54.724Z,15.75
2022-10-16T21:44:26.176Z,16.35
2022-10-16T21:49:27.901Z,16.45
2022-10-16T21:54:28.796Z,16.35
2022-10-16T21:56:59.759Z,17.47
2022-10-16T21:59:30.462Z,16.45
2022-10-16T22:02:01.957Z,15.87
2022-10-16T22:04:33.371Z,17.30
2022-10-16T22:09:34.546Z,16.83
2022-10-16T22:12:05.098Z,17.65
2022-10-16T22:14:36.085Z,17.20
2022-10-16T22:17:06.931Z,15.95
2022-10-16T22:19:37.726Z,17.10
2022-10-16T22:22:08.741Z,17.60
2022-10-16T22:24:40.346Z,17.20
2022-10-16T22:27:11.137Z,16.70
2022-10-16T22:29:41.716Z,18.03
2022-10-16T22:32:12.552Z,17.83
2022-10-16T22:34:43.941Z,17.52
2022-10-16T22:37:14.907Z,17.67
2022-10-16T22:39:45.720Z,17.77
2022-10-16T22:42:16.490Z,17.88
2022-10-16T22:44:47.572Z,17.23
2022-10-16T22:47:18.402Z,17.35
2022-10-16T22:49:49.123Z,17.80
2022-10-16T22:52:19.938Z,18.43
2022-10-16T22:54:51.366Z,16.88
2022-10-16T22:59:53.083Z,16.25
2022-10-16T23:02:24.408Z,16.90
2022-10-16T23:05:32.232Z,18.17
2022-10-16T23:08:03.403Z,18.73
2022-10-16T23:10:34.185Z,17.15
2022-10-16T23:13:04.883Z,18.00
2022-10-16T23:15:35.599Z,17.83
2022-10-16T23:18:06.257Z,18.50
2022-10-16T23:20:37.160Z,18.50
2022-10-16T23:23:07.878Z,17.83
2022-10-16T23:25:39.548Z,17.17
2022-10-16T23:28:10.290Z,16.27
2022-10-16T23:30:42.024Z,16.98
2022-10-16T23:33:12.709Z,17.67
2022-10-16T23:35:44.141Z,17.70
2022-10-16T23:38:14.974Z,17.20
2022-10-16T23:40:45.671Z,15.77
2022-10-16T23:43:16.473Z,17.20
2022-10-16T23:45:47.316Z,17.45
2022-10-16T23:48:18.353Z,16.15
2022-10-16T23:50:49.261Z,17.30
2022-10-16T23:53:20.436Z,16.55
2022-10-16T23:55:51.251Z,17.50
2022-10-16T23:58:22.322Z,16.30
